• Join FlightAware (Why Join?)
  • Login
  • US Flag 
 
03:50PM EST


 

Airport Tracker/Info


-or-


 

Live Flight TrackerFlight Track Log ✈ EGF3979 ✈ 13-May-2013 ✈ CYYZ - KORD

Flight Track Log - Related Links

Times and Time Zones

All times are in EDT time to prevent confusion due to time zone crossing. See the EGF3979 flight status page for this flight to view local times or setup timezone preferences in your user account.

Time Position Orientation Groundspeed Altitude Reporting Facility
EDT Latitude Longitude Course Direction KTS MPH feet Rate Location/Type
06:35AM 43.6500 -79.6833 277° West 140 161 2,200  Level Toronto Center
06:36AM 43.6675 -79.8558 281° West  Level FlightAware Approximate
06:36AM 43.6167 -79.7333 227° Southwest 200 230 4,100  Level Toronto Center
06:37AM 43.6843 -79.9780 277° West  Level FlightAware Approximate
06:37AM 43.6167 -79.8167 270° West 230 265 6,700  Level Toronto Center
06:38AM 43.6946 -80.1016 277° West  Level FlightAware Approximate
06:38AM 43.6333 -79.9167 283° West 240 276 9,100  Level Toronto Center
06:39AM 43.7008 -80.2255 277° West  Level FlightAware Approximate
06:39AM 43.6500 -80.0000 285° West 250 288 11,100  Level Toronto Center
06:40AM 43.7127 -80.3564 277° West  Level FlightAware Approximate
06:40AM 43.6167 -80.1167 248° West 290 334 12,600  Level Toronto Center
06:41AM 43.6000 -80.2333 259° West 310 357 14,400 1,620 Climbing Toronto Center
06:42AM 43.5833 -80.3500 259° West 320 368 15,900 1,380 Climbing Toronto Center
06:43AM 43.5667 -80.4667 259° West 330 380 17,200 1,440 Climbing Toronto Center
06:44AM 43.5500 -80.6000 260° West 340 391 18,800 1,500 Climbing Toronto Center
06:45AM 43.5167 -80.7167 249° West 350 403 20,200 1,380 Climbing Toronto Center
06:46AM 43.4833 -80.8500 251° West 360 414 21,600 1,380 Climbing Toronto Center
06:47AM 43.4667 -81.0167 262° West 370 426 23,000 1,200 Climbing Toronto Center
06:48AM 43.4333 -81.1333 249° West 370 426 24,100 1,140 Climbing Toronto Center
06:49AM 43.4000 -81.2833 253° West 380 437 25,300 1,260 Climbing Toronto Center
06:50AM 43.3500 -81.4000 240° Southwest 380 437 26,700 1,260 Climbing Toronto Center
06:51AM 43.3167 -81.5333 251° West 380 437 27,900 960 Climbing Toronto Center
06:52AM 43.2833 -81.7000 255° West 390 449 28,700 1,200 Climbing Toronto Center
06:53AM 43.2667 -81.8333 260° West 370 426 30,300 1,560 Climbing Toronto Center
06:54AM 43.2333 -81.9667 251° West 360 414 31,900 840 Climbing Toronto Center
06:55AM 43.2167 -82.1000 260° West 370 426 32,000  Climbing Toronto Center
06:56AM 43.2000 -82.2333 260° West 400 460 32,000  Level Toronto Center
06:57AM 43.1833 -82.4000 262° West 420 483 32,000  Level Toronto Center
06:58AM 43.1667 -82.5667 262° West 420 483 32,000  Level Toronto Center
06:58AM 43.1497 -82.6861 259° West 428 493 32,000  Level Cleveland Center
06:59AM 43.1278 -82.8503 260° West 428 493 32,000  Level Cleveland Center
07:00AM 43.1058 -83.0117 260° West 428 493 32,000  Level Cleveland Center
07:01AM 43.0856 -83.1700 260° West 428 493 32,000  Level Cleveland Center
07:02AM 43.0611 -83.3283 258° West 428 493 32,000  Level Cleveland Center
07:03AM 43.0408 -83.4778 260° West 433 498 32,000  Level Cleveland Center
07:04AM 43.0178 -83.6417 259° West 433 498 32,000  Level Cleveland Center
07:05AM 42.9947 -83.7994 259° West 433 498 32,000  Level Cleveland Center
07:06AM 42.9733 -83.9658 260° West 433 498 32,000  Level Cleveland Center
07:07AM 42.9497 -84.1289 259° West 438 504 32,000  Level Cleveland Center
07:08AM 42.9258 -84.2894 259° West 438 504 32,000  Level Cleveland Center
07:09AM 42.9069 -84.4289 260° West 438 504 32,000  Level Chicago Center
07:10AM 42.8831 -84.5925 259° West 440 506 32,000  Level Chicago Center
07:11AM 42.8656 -84.7589 262° West 444 511 32,000  Level Chicago Center
07:12AM 42.8486 -84.9217 262° West 437 503 32,000  Level Chicago Center
07:13AM 42.8317 -85.0864 262° West 440 506 32,000  Level Chicago Center
07:14AM 42.8144 -85.2475 262° West 431 496 32,000  Level Chicago Center
07:15AM 42.7975 -85.4019 262° West 415 478 32,000 -120 Level Chicago Center
07:16AM 42.7772 -85.5597 260° West 421 484 31,800 -1,440 Descending Chicago Center
07:17AM 42.7464 -85.7236 256° West 440 506 29,100 -2,880 Descending Chicago Center
07:18AM 42.7175 -85.8811 256° West 430 495 26,000 -3,360 Descending Chicago Center
07:19AM 42.6839 -86.0667 256° West 420 483 22,300 -2,940 Descending Chicago Center
07:20AM 42.6556 -86.2186 256° West 416 479 20,100 -1,320 Descending Chicago Center
07:21AM 42.6300 -86.3581 256° West 389 448 19,700 -720 Descending Chicago Center
07:22AM 42.6031 -86.4989 255° West 385 443 18,700 -960 Descending Chicago Center
07:23AM 42.5767 -86.6367 255° West 380 437 17,800 -840 Descending Chicago Center
07:24AM 42.5539 -86.7611 256° West 368 423 17,000 -720 Descending Chicago Center
07:25AM 42.5147 -86.8967 249° West 363 418 16,400 -1,740 Descending Chicago Center
07:26AM 42.4794 -87.0294 250° West 373 429 13,500 -2,880 Descending Chicago Center
07:27AM 42.4442 -87.1511 249° West 352 405 10,600 -1,920 Descending Chicago Center
07:28AM 42.4172 -87.2539 250° West 292 336 9,600 -1,260 Descending Chicago Center
07:29AM 42.3781 -87.3592 243° Southwest 265 305 8,100 -1,320 Descending Chicago Center
07:31AM 42.3467 -87.4356 241° Southwest 262 302 7,000 -540 Descending Chicago Center
07:32AM 42.3144 -87.5156 241° Southwest 245 282 7,000  Level Chicago Center
07:33AM 42.2608 -87.6075 232° Southwest 266 306 7,000 -360 Level Chicago Center
07:34AM 42.2019 -87.6689 218° Southwest 271 312 6,300 -720 Descending Chicago Center